Time;durP1;ratioP1;P1;durP2;ratioP2;P2;SDS_P1;SDS_P2;PMS_P1;PMS_P2;Temp;Humidity;BMP_temperature;BMP_pressure;BME280_temperature;BME280_humidity;BME280_pressure;Samples;Min_cycle;Max_cycle;Signal;HPM_P1;HPM_P2
2024/01/26 00:00:32;;;;;;;27.92;11.35;;;;;;;0.45;75.87;98499.63;5007177;28;20046;-49
2024/01/26 00:02:58;;;;;;;26.10;10.70;;;;;;;0.42;75.95;98504.75;4973006;28;20038;-49
2024/01/26 00:05:25;;;;;;;23.42;10.95;;;;;;;0.41;76.28;98506.50;5004867;28;20042;-52
2024/01/26 00:07:52;;;;;;;31.90;11.27;;;;;;;0.46;76.46;98508.97;4955765;28;20165;-52
2024/01/26 00:10:18;;;;;;;26.42;10.48;;;;;;;0.40;76.45;98496.28;4985829;28;20042;-50
2024/01/26 00:12:44;;;;;;;24.27;10.27;;;;;;;0.23;76.49;98467.50;4951783;28;20057;-50
2024/01/26 00:15:10;;;;;;;27.60;10.77;;;;;;;0.43;76.68;98506.44;4973519;28;20139;-48
2024/01/26 00:17:39;;;;;;;26.65;10.68;;;;;;;0.43;76.14;98506.44;5005794;28;20433;-50
2024/01/26 00:20:05;;;;;;;25.58;11.68;;;;;;;0.45;76.27;98503.88;4994815;28;20437;-51
2024/01/26 00:22:32;;;;;;;21.52;9.95;;;;;;;0.29;76.14;98506.63;4969756;28;20042;-52
2024/01/26 00:24:58;;;;;;;25.23;10.75;;;;;;;0.27;76.54;98510.06;4987567;28;20119;-50
2024/01/26 00:27:27;;;;;;;24.98;10.90;;;;;;;0.16;76.31;98482.06;5005248;28;20041;-48
2024/01/26 00:29:53;;;;;;;23.33;9.80;;;;;;;0.34;76.12;98509.97;5006386;28;20359;-50
2024/01/26 00:32:19;;;;;;;22.88;11.10;;;;;;;0.33;75.73;98505.72;4972720;28;20045;-48
2024/01/26 00:34:45;;;;;;;25.15;11.65;;;;;;;0.37;75.96;98524.41;4971890;28;20394;-49
2024/01/26 00:37:12;;;;;;;24.92;11.23;;;;;;;0.40;75.80;98519.28;5006081;28;20065;-48
2024/01/26 00:39:39;;;;;;;25.73;10.52;;;;;;;0.21;76.07;98487.97;4988236;28;20509;-52
2024/01/26 00:42:06;;;;;;;26.05;11.25;;;;;;;0.41;75.88;98519.25;4971324;28;20038;-54
2024/01/26 00:44:32;;;;;;;23.83;10.95;;;;;;;0.37;75.16;98519.28;5003811;28;20046;-48
2024/01/26 00:46:58;;;;;;;24.63;10.73;;;;;;;0.37;75.96;98532.06;5003631;28;20041;-47
2024/01/26 00:49:25;;;;;;;25.92;10.80;;;;;;;0.41;75.78;98528.66;4988215;28;20141;-47
2024/01/26 00:51:51;;;;;;;27.02;12.10;;;;;;;0.39;75.75;98522.69;4973627;28;20053;-50
2024/01/26 00:54:19;;;;;;;30.33;12.05;;;;;;;0.40;75.87;98535.47;4986844;28;20173;-53
2024/01/26 00:56:46;;;;;;;30.80;11.30;;;;;;;0.47;75.55;98537.94;4971843;28;20171;-51
2024/01/26 00:59:12;;;;;;;29.63;12.05;;;;;;;0.48;75.16;98532.78;4969264;28;20046;-49
2024/01/26 01:01:38;;;;;;;23.42;11.00;;;;;;;0.28;75.62;98493.84;4969962;28;20046;-51
2024/01/26 01:04:05;;;;;;;26.63;11.65;;;;;;;0.29;75.74;98493.84;4950045;28;20099;-47
2024/01/26 01:06:31;;;;;;;24.73;10.40;;;;;;;0.52;75.63;98541.28;4972293;28;20049;-48
2024/01/26 01:08:57;;;;;;;24.05;10.35;;;;;;;0.52;75.30;98539.59;4964881;28;20125;-52
2024/01/26 01:11:23;;;;;;;24.25;10.32;;;;;;;0.45;75.31;98521.78;4965140;28;20625;-50
2024/01/26 01:13:50;;;;;;;25.48;11.43;;;;;;;0.54;75.88;98545.50;4997705;28;20042;-50
2024/01/26 01:16:17;;;;;;;27.02;11.52;;;;;;;0.57;75.41;98542.94;4999568;28;20054;-51
2024/01/26 01:18:43;;;;;;;25.85;11.68;;;;;;;0.66;75.59;98545.34;4973203;28;20125;-54
2024/01/26 01:21:09;;;;;;;24.42;11.13;;;;;;;0.24;75.16;98480.28;4948444;28;20074;-51
2024/01/26 01:23:36;;;;;;;25.77;12.00;;;;;;;0.42;75.36;98512.41;5000705;28;20206;-53
2024/01/26 01:26:06;;;;;;;24.63;10.73;;;;;;;0.45;75.14;98521.78;5000700;28;20125;-49
2024/01/26 01:28:32;;;;;;;23.65;11.10;;;;;;;0.67;75.34;98548.75;4959732;28;20065;-51
2024/01/26 01:30:59;;;;;;;22.60;10.38;;;;;;;0.45;75.09;98509.84;4993788;28;21031;-53
2024/01/26 01:33:26;;;;;;;29.23;11.68;;;;;;;0.64;74.91;98549.63;4984020;28;20506;-49
2024/01/26 01:35:52;;;;;;;25.67;10.43;;;;;;;0.35;75.28;98500.59;4983543;28;20537;-49
2024/01/26 01:38:18;;;;;;;23.42;10.85;;;;;;;0.61;75.20;98551.41;4998342;28;20042;-48
2024/01/26 01:40:44;;;;;;;22.73;10.85;;;;;;;0.60;75.38;98555.66;5004691;28;20076;-48
2024/01/26 01:43:20;;;;;;;28.92;11.35;;;;;;;0.64;75.24;98559.88;4967140;28;20168;-50
2024/01/26 01:45:47;;;;;;;22.65;10.63;;;;;;;0.45;75.40;98520.06;4983551;28;20046;-50
2024/01/26 01:48:13;;;;;;;27.67;11.85;;;;;;;0.71;74.98;98570.88;4994348;28;20419;-48
2024/01/26 01:50:40;;;;;;;27.15;10.88;;;;;;;0.47;75.36;98535.41;4984874;28;20129;-51
2024/01/26 01:53:07;;;;;;;23.98;10.55;;;;;;;0.47;75.62;98535.41;4955902;28;20034;-47
2024/01/26 01:55:34;;;;;;;28.05;11.77;;;;;;;0.73;75.53;98579.38;4962465;28;20042;-50
2024/01/26 01:58:02;;;;;;;26.05;10.73;;;;;;;0.73;75.94;98579.38;4984393;28;20037;-47
2024/01/26 02:00:31;;;;;;;25.50;10.57;;;;;;;0.73;75.62;98582.75;4999027;28;20540;-50
2024/01/26 02:02:57;;;;;;;25.15;11.85;;;;;;;0.73;75.66;98587.88;4958744;28;20406;-52
2024/01/26 02:05:23;;;;;;;23.15;10.98;;;;;;;0.67;76.16;98582.00;4975082;28;20104;-51
2024/01/26 02:07:50;;;;;;;29.05;12.02;;;;;;;0.66;76.34;98593.09;5007338;28;20049;-51
2024/01/26 02:10:18;;;;;;;27.83;10.77;;;;;;;0.62;76.25;98591.44;5008238;28;20041;-50
2024/01/26 02:12:45;;;;;;;26.85;11.75;;;;;;;0.59;76.25;98597.44;4991230;28;20727;-51
2024/01/26 02:15:13;;;;;;;23.75;10.57;;;;;;;0.57;76.50;98601.75;4991294;28;20096;-54
2024/01/26 02:17:55;;;;;;;28.13;11.63;;;;;;;0.50;76.83;98601.81;5008215;28;20045;-49
2024/01/26 02:20:23;;;;;;;27.13;11.20;;;;;;;0.46;76.68;98601.00;4995691;28;20133;-50
2024/01/26 02:22:49;;;;;;;24.25;11.63;;;;;;;0.50;77.00;98610.34;4996972;28;20088;-52
2024/01/26 02:25:16;;;;;;;26.83;11.27;;;;;;;0.55;76.82;98600.06;5008953;28;20056;-48
2024/01/26 02:27:41;;;;;;;25.75;10.85;;;;;;;0.56;76.53;98606.88;5006992;28;20436;-50
2024/01/26 02:30:08;;;;;;;27.50;12.35;;;;;;;0.35;76.65;98580.69;5008122;28;20045;-51
2024/01/26 02:32:34;;;;;;;26.17;11.23;;;;;;;0.55;76.30;98603.47;4996376;28;21708;-49
2024/01/26 02:35:00;;;;;;;25.33;11.02;;;;;;;0.54;76.60;98613.69;5007402;28;20051;-50
2024/01/26 02:37:26;;;;;;;27.23;10.23;;;;;;;0.54;76.29;98619.66;4966075;28;20129;-52
2024/01/26 02:39:52;;;;;;;31.33;11.98;;;;;;;0.44;75.98;98620.63;4985247;28;20081;-53
2024/01/26 02:42:17;;;;;;;26.73;11.63;;;;;;;0.36;76.13;98623.28;5007105;28;20045;-51
2024/01/26 02:44:44;;;;;;;29.75;12.55;;;;;;;0.30;75.96;98615.69;5006906;28;20539;-48
2024/01/26 02:47:10;;;;;;;28.45;12.10;;;;;;;0.07;75.97;98580.97;4974537;28;20041;-51
2024/01/26 02:49:36;;;;;;;24.08;10.70;;;;;;;0.23;75.80;98616.59;5006148;28;20561;-49
2024/01/26 02:52:01;;;;;;;24.63;11.15;;;;;;;0.23;75.95;98619.16;4974052;28;20048;-54
2024/01/26 02:54:29;;;;;;;28.10;11.30;;;;;;;0.25;75.95;98629.38;5007111;28;20041;-49
2024/01/26 02:56:56;;;;;;;22.88;10.90;;;;;;;0.04;75.80;98597.19;4969839;28;20506;-51
2024/01/26 02:59:23;;;;;;;26.92;11.30;;;;;;;0.19;75.86;98632.81;4977585;28;20073;-53
2024/01/26 03:01:49;;;;;;;23.05;10.60;;;;;;;0.16;75.96;98634.56;4970727;28;20073;-49
2024/01/26 03:04:15;;;;;;;27.33;11.27;;;;;;;0.16;75.40;98627.72;4963543;28;20578;-53
2024/01/26 03:06:41;;;;;;;27.70;10.52;;;;;;;0.06;75.99;98631.22;4980857;28;20052;-48
2024/01/26 03:09:07;;;;;;;27.58;11.40;;;;;;;0.14;75.86;98639.69;4992893;28;20117;-50
2024/01/26 03:11:42;;;;;;;27.17;11.20;;;;;;;0.15;76.68;98643.94;4986717;28;20042;-51
2024/01/26 03:14:07;;;;;;;23.58;10.30;;;;;;;0.20;76.71;98654.13;4971582;28;20046;-53
2024/01/26 03:16:34;;;;;;;25.08;11.38;;;;;;;0.22;76.53;98655.78;4987070;28;20540;-52
2024/01/26 03:19:00;;;;;;;26.60;10.80;;;;;;;0.02;76.44;98619.34;4978720;28;20513;-51
2024/01/26 03:21:26;;;;;;;33.25;12.07;;;;;;;0.03;76.01;98615.94;5007148;28;20156;-57
2024/01/26 03:23:53;;;;;;;26.42;11.50;;;;;;;0.26;75.93;98669.41;4973339;28;20140;-53
2024/01/26 03:26:19;;;;;;;26.05;10.90;;;;;;;0.02;76.10;98641.50;4990273;28;20076;-51
2024/01/26 03:28:46;;;;;;;24.90;11.55;;;;;;;0.17;75.87;98667.75;5007365;28;20061;-51
2024/01/26 03:31:12;;;;;;;22.10;10.40;;;;;;;0.18;75.68;98666.91;4995503;28;20506;-52
2024/01/26 03:33:38;;;;;;;27.42;11.75;;;;;;;0.20;75.20;98669.44;4955219;28;20038;-51
2024/01/26 03:36:04;;;;;;;27.20;11.57;;;;;;;0.18;75.86;98673.72;4969873;28;20034;-52
2024/01/26 03:38:30;;;;;;;27.20;11.40;;;;;;;0.15;75.52;98678.88;5000747;28;20133;-50
2024/01/26 03:40:56;;;;;;;29.25;12.38;;;;;;;-0.02;75.79;98646.66;4967627;28;20275;-50
2024/01/26 03:43:22;;;;;;;30.17;12.85;;;;;;;0.17;76.10;98677.97;4987636;28;20556;-49
2024/01/26 03:45:48;;;;;;;30.58;12.23;;;;;;;0.10;76.07;98678.06;5002958;28;20050;-51
2024/01/26 03:48:14;;;;;;;31.63;12.90;;;;;;;-0.15;76.64;98664.63;4987813;28;20034;-53
2024/01/26 03:50:40;;;;;;;28.80;12.38;;;;;;;0.02;76.55;98690.03;5005007;28;20056;-50
2024/01/26 03:53:06;;;;;;;30.45;13.30;;;;;;;0.06;76.63;98694.25;4972016;28;20395;-49
2024/01/26 03:55:32;;;;;;;29.63;13.38;;;;;;;-0.28;76.43;98637.50;4938245;28;20077;-48
2024/01/26 03:57:58;;;;;;;27.23;11.93;;;;;;;0.02;76.75;98690.03;4969482;28;20125;-49
2024/01/26 04:00:24;;;;;;;30.02;12.18;;;;;;;0.04;76.86;98699.41;4985968;28;20141;-50
2024/01/26 04:02:50;;;;;;;36.63;13.48;;;;;;;-0.37;76.83;98638.44;4970070;28;20050;-52
2024/01/26 04:05:16;;;;;;;29.15;13.15;;;;;;;-0.35;76.62;98630.75;4998723;28;20038;-48
2024/01/26 04:07:44;;;;;;;29.35;13.23;;;;;;;-0.02;76.96;98690.06;5006652;28;20078;-49
2024/01/26 04:10:10;;;;;;;29.98;12.75;;;;;;;0.03;76.82;98704.50;5005696;28;20041;-50
2024/01/26 04:12:35;;;;;;;38.33;13.85;;;;;;;0.04;77.07;98713.88;4969820;28;20049;-47
2024/01/26 04:15:01;;;;;;;29.17;13.00;;;;;;;0.02;76.82;98713.03;4994641;28;20042;-50
2024/01/26 04:17:31;;;;;;;30.95;13.15;;;;;;;-0.08;76.89;98704.59;5004906;28;20449;-48
2024/01/26 04:19:56;;;;;;;34.33;13.18;;;;;;;-0.23;76.73;98691.94;4990615;28;20052;-48
2024/01/26 04:22:22;;;;;;;28.40;11.95;;;;;;;-0.09;76.89;98718.22;4986606;28;20042;-47
2024/01/26 04:24:48;;;;;;;33.00;14.13;;;;;;;-0.35;76.95;98682.66;4988278;28;20041;-51
2024/01/26 04:27:14;;;;;;;33.03;13.38;;;;;;;-0.08;76.73;98730.13;5005212;28;20045;-49
2024/01/26 04:29:40;;;;;;;31.48;12.90;;;;;;;-0.05;76.92;98722.44;4999753;28;20038;-47
2024/01/26 04:32:06;;;;;;;35.10;14.45;;;;;;;-0.10;77.04;98711.41;4983857;28;20579;-49
2024/01/26 04:34:32;;;;;;;34.28;13.38;;;;;;;-0.22;76.44;98691.09;4996661;28;20037;-51
2024/01/26 04:36:58;;;;;;;33.05;14.60;;;;;;;-0.24;76.75;98692.78;5001530;28;20498;-51
2024/01/26 04:39:24;;;;;;;33.85;14.02;;;;;;;-0.10;76.63;98725.03;4980721;28;20041;-46
2024/01/26 04:41:50;;;;;;;37.47;13.98;;;;;;;-0.31;76.35;98686.03;4989109;28;20057;-49
2024/01/26 04:44:16;;;;;;;34.55;13.75;;;;;;;-0.26;76.95;98694.53;4985008;28;20128;-45
2024/01/26 04:46:44;;;;;;;32.75;13.20;;;;;;;-0.02;76.56;98730.09;5002718;28;20037;-49
2024/01/26 04:49:10;;;;;;;31.20;13.05;;;;;;;-0.04;76.79;98731.81;4985390;28;20120;-48
2024/01/26 04:51:39;;;;;;;32.17;13.95;;;;;;;-0.35;76.74;98679.25;5001254;28;20041;-48
2024/01/26 04:54:05;;;;;;;31.13;13.48;;;;;;;-0.05;76.62;98742.88;4993614;28;20054;-52
2024/01/26 04:56:31;;;;;;;34.40;13.93;;;;;;;-0.04;76.61;98744.56;4994382;28;20598;-49
2024/01/26 04:58:57;;;;;;;33.72;13.70;;;;;;;-0.05;76.50;98745.44;4961171;28;20403;-59
2024/01/26 05:01:24;;;;;;;33.00;13.05;;;;;;;-0.31;76.88;98706.44;4968653;28;20108;-59
2024/01/26 05:03:50;;;;;;;34.35;14.02;;;;;;;-0.30;76.50;98709.00;5003063;28;20426;-55
2024/01/26 05:06:16;;;;;;;38.00;14.38;;;;;;;-0.11;76.64;98745.50;5005277;28;20037;-50
2024/01/26 05:08:42;;;;;;;34.65;14.13;;;;;;;-0.12;76.36;98752.31;4984321;28;20045;-51
2024/01/26 05:11:08;;;;;;;33.75;13.43;;;;;;;-0.14;76.15;98748.91;4977569;28;20042;-50
2024/01/26 05:13:34;;;;;;;34.60;13.95;;;;;;;-0.31;76.37;98727.72;4999815;28;20069;-49
2024/01/26 05:16:00;;;;;;;37.38;14.90;;;;;;;-0.46;76.38;98708.25;5000380;28;20034;-52
2024/01/26 05:18:28;;;;;;;36.53;15.73;;;;;;;-0.12;76.51;98759.13;4992393;28;20050;-48
2024/01/26 05:20:54;;;;;;;36.92;14.45;;;;;;;-0.09;76.29;98756.53;4978339;28;20048;-51
2024/01/26 05:23:20;;;;;;;35.78;14.75;;;;;;;-0.35;76.40;98727.75;4945512;28;20058;-50
2024/01/26 05:25:47;;;;;;;32.58;14.25;;;;;;;-0.15;76.61;98770.19;4990910;28;20042;-51
2024/01/26 05:28:13;;;;;;;34.13;15.27;;;;;;;-0.16;76.41;98768.50;4975855;28;20049;-48
2024/01/26 05:30:39;;;;;;;38.30;14.40;;;;;;;-0.14;76.35;98773.59;4963528;28;20116;-48
2024/01/26 05:33:05;;;;;;;37.92;14.55;;;;;;;-0.29;76.60;98743.06;4994818;28;20507;-51
2024/01/26 05:35:31;;;;;;;40.55;15.43;;;;;;;-0.03;76.46;98782.91;4956401;28;20631;-50
2024/01/26 05:37:57;;;;;;;40.55;16.02;;;;;;;-0.02;76.32;98773.53;4980197;28;20095;-53
2024/01/26 05:40:23;;;;;;;36.05;14.90;;;;;;;-0.16;76.17;98757.47;4985993;28;21084;-49
2024/01/26 05:42:48;;;;;;;37.33;15.38;;;;;;;-0.04;76.42;98781.19;4997655;28;20478;-50
2024/01/26 05:45:16;;;;;;;36.92;14.85;;;;;;;-0.45;76.11;98712.50;5002878;28;20046;-50
2024/01/26 05:47:42;;;;;;;35.58;15.23;;;;;;;-0.19;75.93;98750.66;4998689;28;20061;-51
2024/01/26 05:50:08;;;;;;;38.28;15.07;;;;;;;-0.01;75.85;98785.44;4976808;28;20042;-51
2024/01/26 05:52:34;;;;;;;38.30;16.02;;;;;;;-0.02;75.94;98783.75;4991633;28;20042;-48
2024/01/26 05:55:00;;;;;;;36.25;14.65;;;;;;;-0.05;75.45;98789.72;4999793;28;20538;-48
2024/01/26 05:57:29;;;;;;;38.57;14.77;;;;;;;-0.05;75.72;98794.81;4974412;28;20072;-46
2024/01/26 05:59:55;;;;;;;36.33;14.27;;;;;;;-0.03;76.11;98800.78;4980319;28;20057;-47
2024/01/26 06:02:21;;;;;;;41.15;15.48;;;;;;;-0.25;75.43;98762.59;4997700;28;20133;-51
2024/01/26 06:04:47;;;;;;;35.20;14.30;;;;;;;-0.06;75.24;98799.97;4998761;28;20046;-52
2024/01/26 06:07:13;;;;;;;39.42;14.80;;;;;;;-0.06;75.37;98805.91;4964370;28;20049;-53
2024/01/26 06:09:40;;;;;;;33.55;14.82;;;;;;;-0.02;75.34;98802.47;4964876;28;20040;-50
2024/01/26 06:12:06;;;;;;;36.40;14.90;;;;;;;-0.29;75.09;98763.47;4965556;28;20089;-52
2024/01/26 06:14:32;;;;;;;37.92;14.45;;;;;;;-0.05;75.12;98806.75;4974517;28;20196;-50
2024/01/26 06:16:58;;;;;;;40.47;17.10;;;;;;;-0.21;74.85;98771.97;4961444;28;20225;-51
2024/01/26 06:19:25;;;;;;;39.55;14.75;;;;;;;0.04;74.92;98810.97;4965650;28;20049;-49
2024/01/26 06:21:51;;;;;;;36.40;15.02;;;;;;;-0.14;75.14;98782.13;4994352;28;20506;-53
2024/01/26 06:24:17;;;;;;;46.25;15.90;;;;;;;0.13;75.34;98821.97;5002781;28;20052;-49
2024/01/26 06:26:44;;;;;;;40.08;15.50;;;;;;;-0.20;74.58;98759.16;4952297;28;20116;-47
2024/01/26 06:29:10;;;;;;;39.10;14.98;;;;;;;0.04;74.97;98793.94;4973928;28;20042;-53
2024/01/26 06:31:36;;;;;;;36.83;14.70;;;;;;;0.22;74.91;98831.28;4969138;28;20042;-48
2024/01/26 06:34:03;;;;;;;40.17;16.88;;;;;;;0.21;74.57;98832.16;4996568;28;20333;-45
2024/01/26 06:36:29;;;;;;;38.80;15.75;;;;;;;0.24;74.54;98834.69;4952509;28;20086;-51
2024/01/26 06:38:55;;;;;;;32.80;14.00;;;;;;;0.28;74.63;98826.13;4978709;28;20053;-52
2024/01/26 06:41:21;;;;;;;42.10;15.18;;;;;;;0.38;74.79;98837.97;4992742;28;20042;-50
2024/01/26 06:43:51;;;;;;;33.35;14.57;;;;;;;0.39;74.42;98835.41;4994087;28;20042;-50
2024/01/26 06:46:24;;;;;;;36.78;15.23;;;;;;;0.13;73.83;98793.00;4998344;28;20046;-51
2024/01/26 06:48:50;;;;;;;32.80;14.48;;;;;;;0.05;73.82;98775.19;4975097;28;20148;-53
2024/01/26 06:51:16;;;;;;;39.90;15.02;;;;;;;0.24;73.67;98804.84;4966545;28;20050;-49
2024/01/26 06:53:43;;;;;;;35.40;15.95;;;;;;;0.44;73.16;98845.59;5003341;28;20034;-46
2024/01/26 06:56:09;;;;;;;36.78;16.05;;;;;;;0.22;73.03;98806.56;4963709;28;20133;-48
2024/01/26 06:58:35;;;;;;;34.60;15.70;;;;;;;0.48;73.18;98841.31;4977821;28;20061;-53
2024/01/26 07:01:01;;;;;;;44.67;15.55;;;;;;;0.57;72.89;98848.94;4959967;28;20649;-53
2024/01/26 07:03:27;;;;;;;42.92;16.95;;;;;;;0.62;72.91;98849.75;5005556;28;20048;-54
2024/01/26 07:05:54;;;;;;;36.17;15.88;;;;;;;0.65;72.99;98849.72;5001738;28;20518;-48
2024/01/26 07:08:20;;;;;;;37.90;14.95;;;;;;;0.65;72.66;98852.25;4955697;28;20038;-51
2024/01/26 07:10:46;;;;;;;38.92;16.10;;;;;;;0.67;72.59;98851.41;4973781;28;20318;-54
2024/01/26 07:13:13;;;;;;;38.88;16.05;;;;;;;0.71;72.44;98859.91;4982088;28;20541;-54
2024/01/26 07:15:41;;;;;;;42.05;17.02;;;;;;;0.80;72.42;98852.13;4981866;28;20045;-53
2024/01/26 07:18:07;;;;;;;37.65;14.70;;;;;;;0.63;72.29;98834.38;4954851;28;20038;-52
2024/01/26 07:20:33;;;;;;;38.35;14.80;;;;;;;0.78;72.36;98849.59;4978456;28;20492;-51
2024/01/26 07:22:59;;;;;;;36.85;15.85;;;;;;;0.65;71.99;98822.44;4947199;28;20035;-53
2024/01/26 07:25:25;;;;;;;42.47;16.83;;;;;;;0.88;71.74;98862.31;4996013;28;20052;-51
2024/01/26 07:27:52;;;;;;;40.33;16.67;;;;;;;0.87;71.83;98858.06;4985921;28;20048;-53
2024/01/26 07:30:18;;;;;;;42.58;16.27;;;;;;;0.92;71.43;98867.38;4965392;28;20042;-48
2024/01/26 07:32:45;;;;;;;41.20;15.25;;;;;;;0.82;71.10;98848.72;5006218;28;20038;-54
2024/01/26 07:35:11;;;;;;;44.20;16.70;;;;;;;0.96;70.98;98871.59;4951691;28;20450;-49
2024/01/26 07:37:37;;;;;;;40.13;16.92;;;;;;;0.92;70.95;98882.72;4988716;28;20038;-55
2024/01/26 07:40:04;;;;;;;42.00;17.13;;;;;;;0.95;71.04;98869.91;4979568;28;20047;-50
2024/01/26 07:42:33;;;;;;;40.80;15.93;;;;;;;1.05;70.99;98888.56;4978510;28;20074;-54
2024/01/26 07:44:59;;;;;;;42.70;16.17;;;;;;;0.90;70.62;98863.97;4963402;28;20037;-52
2024/01/26 07:47:25;;;;;;;39.38;16.63;;;;;;;1.05;70.40;98884.31;4981735;28;20044;-52
2024/01/26 07:49:52;;;;;;;43.53;16.58;;;;;;;1.06;70.24;98895.41;4948574;28;20460;-49
2024/01/26 07:52:20;;;;;;;44.42;16.42;;;;;;;1.15;69.86;98895.34;4965911;28;20133;-48
2024/01/26 07:54:48;;;;;;;42.13;17.42;;;;;;;1.21;69.91;98892.69;4994041;28;20046;-50
2024/01/26 07:57:15;;;;;;;45.47;18.02;;;;;;;1.21;69.91;98895.25;4975414;28;20034;-51
2024/01/26 07:59:41;;;;;;;41.92;17.88;;;;;;;1.07;69.64;98862.13;4969634;28;20104;-52
2024/01/26 08:02:07;;;;;;;39.90;16.88;;;;;;;1.26;69.71;98886.66;4969425;28;20096;-56
2024/01/26 08:04:34;;;;;;;46.33;19.10;;;;;;;1.34;69.65;98901.97;4978319;28;20042;-52
2024/01/26 08:07:00;;;;;;;41.15;16.60;;;;;;;1.31;69.04;98898.59;4951502;28;20038;-50
2024/01/26 08:09:26;;;;;;;42.22;16.88;;;;;;;1.16;69.22;98879.09;4979752;28;20086;-53
2024/01/26 08:11:53;;;;;;;44.35;18.70;;;;;;;1.40;69.58;98901.06;4978913;28;20442;-50
2024/01/26 08:14:19;;;;;;;45.97;17.58;;;;;;;1.38;68.83;98901.06;4993257;28;20042;-53
2024/01/26 08:16:47;;;;;;;49.03;20.13;;;;;;;1.33;68.90;98907.94;4977435;28;20136;-51
2024/01/26 08:19:13;;;;;;;46.70;18.05;;;;;;;1.35;68.91;98913.91;4946487;28;20467;-56
2024/01/26 08:21:39;;;;;;;52.25;17.65;;;;;;;1.14;68.53;98878.28;4994102;28;20042;-61
2024/01/26 08:24:06;;;;;;;43.88;16.65;;;;;;;1.10;68.23;98879.19;4995489;28;20099;-57
2024/01/26 08:26:33;;;;;;;44.13;17.10;;;;;;;1.30;68.50;98912.25;4963889;28;20049;-58
2024/01/26 08:29:00;;;;;;;44.50;17.63;;;;;;;1.30;68.61;98919.94;4977974;28;20046;-56
2024/01/26 08:31:29;;;;;;;42.88;18.35;;;;;;;1.33;68.28;98923.31;4991434;28;20069;-59
2024/01/26 08:33:55;;;;;;;41.05;16.45;;;;;;;1.01;68.18;98871.56;4994648;28;20045;-54
2024/01/26 08:36:21;;;;;;;48.58;16.70;;;;;;;1.36;68.01;98920.69;4977810;28;20046;-52
2024/01/26 08:38:49;;;;;;;50.58;18.75;;;;;;;1.36;68.02;98923.25;4990527;28;20502;-55
2024/01/26 08:41:17;;;;;;;41.38;17.27;;;;;;;1.37;67.80;98924.97;4973745;28;20125;-55
2024/01/26 08:43:43;;;;;;;46.50;17.65;;;;;;;1.38;67.72;98926.66;4977596;28;20509;-58
2024/01/26 08:46:09;;;;;;;40.58;16.88;;;;;;;1.41;67.58;98933.50;4992488;28;20138;-61
2024/01/26 08:48:36;;;;;;;42.17;18.13;;;;;;;1.46;67.73;98926.59;4954122;28;20482;-56
2024/01/26 08:51:02;;;;;;;41.70;17.02;;;;;;;1.46;68.00;98924.91;4998532;28;20038;-53
2024/01/26 08:53:28;;;;;;;43.85;17.40;;;;;;;1.56;67.81;98931.63;4962535;28;20039;-49
2024/01/26 08:55:54;;;;;;;44.53;17.20;;;;;;;1.61;67.97;98931.56;5002041;28;20050;-51
2024/01/26 08:58:21;;;;;;;40.95;17.42;;;;;;;1.70;67.53;98934.88;4957092;28;20580;-55
2024/01/26 09:00:47;;;;;;;42.65;18.30;;;;;;;1.75;67.67;98929.69;4989118;28;20528;-56
2024/01/26 09:03:14;;;;;;;44.75;17.77;;;;;;;1.78;67.20;98931.38;4972043;28;20049;-61
2024/01/26 09:05:42;;;;;;;56.63;18.02;;;;;;;1.83;67.03;98929.63;4989673;28;20140;-54
2024/01/26 09:08:08;;;;;;;46.88;18.13;;;;;;;1.67;67.29;98893.09;4952925;28;20034;-55
2024/01/26 09:10:34;;;;;;;46.70;18.13;;;;;;;1.90;66.82;98938.91;4965105;28;20080;-55
2024/01/26 09:13:00;;;;;;;47.50;19.23;;;;;;;1.91;67.15;98935.50;4945528;28;20045;-57
2024/01/26 09:15:26;;;;;;;54.33;18.70;;;;;;;1.93;66.97;98936.34;4995572;28;20042;-56
2024/01/26 09:17:52;;;;;;;45.00;18.15;;;;;;;1.73;66.92;98910.09;4992442;28;20038;-57
2024/01/26 09:20:18;;;;;;;45.38;18.13;;;;;;;1.78;66.73;98908.34;4978859;28;20458;-54
2024/01/26 09:22:44;;;;;;;44.10;17.17;;;;;;;1.98;66.56;98942.25;4952408;28;20084;-57
2024/01/26 09:25:10;;;;;;;44.50;18.15;;;;;;;1.72;66.83;98914.38;4953415;28;20124;-56
2024/01/26 09:27:36;;;;;;;45.42;18.00;;;;;;;1.85;66.78;98945.81;4959975;28;20737;-51
2024/01/26 09:30:03;;;;;;;47.85;18.90;;;;;;;1.82;66.72;98951.84;4992519;28;20050;-54
2024/01/26 09:32:31;;;;;;;47.08;20.15;;;;;;;1.82;66.74;98945.84;4976127;28;20048;-55
2024/01/26 09:34:57;;;;;;;46.85;18.70;;;;;;;1.81;67.03;98950.13;4961909;28;20042;-62
2024/01/26 09:37:23;;;;;;;51.17;19.98;;;;;;;1.83;66.93;98957.81;4944497;28;20042;-59
2024/01/26 09:39:49;;;;;;;45.97;18.70;;;;;;;1.85;66.97;98956.91;4984015;28;20037;-63
2024/01/26 09:42:15;;;;;;;43.33;17.38;;;;;;;1.56;66.49;98913.69;4993939;28;20061;-61
2024/01/26 09:44:41;;;;;;;47.08;19.77;;;;;;;1.74;66.73;98953.63;4977839;28;20049;-61
2024/01/26 09:47:10;;;;;;;49.97;19.60;;;;;;;1.74;67.04;98939.94;4988565;28;20046;-63
2024/01/26 09:49:37;;;;;;;48.75;18.40;;;;;;;1.75;66.65;98952.75;4979059;28;20038;-56
2024/01/26 09:52:08;;;;;;;44.03;18.70;;;;;;;1.69;66.55;98945.97;4983037;28;20292;-59
2024/01/26 09:54:35;;;;;;;53.20;21.08;;;;;;;1.70;66.66;98951.97;4995142;28;20370;-55
2024/01/26 09:57:02;;;;;;;55.95;20.77;;;;;;;1.52;66.66;98909.44;4979048;28;20671;-58
2024/01/26 09:59:28;;;;;;;51.67;20.00;;;;;;;1.67;66.67;98944.31;4989693;28;20058;-57
2024/01/26 10:01:54;;;;;;;54.15;19.83;;;;;;;1.41;66.80;98913.00;4993625;28;20513;-54
2024/01/26 10:04:20;;;;;;;51.55;20.48;;;;;;;1.42;66.63;98918.09;4977425;28;20053;-54
2024/01/26 10:06:49;;;;;;;52.15;21.60;;;;;;;1.55;66.82;98941.88;4990977;28;20052;-56
2024/01/26 10:09:17;;;;;;;53.65;20.42;;;;;;;1.36;67.10;98920.69;4991529;28;20042;-57
2024/01/26 10:11:43;;;;;;;55.08;20.55;;;;;;;1.51;67.11;98951.31;4976539;28;20140;-53
2024/01/26 10:14:20;;;;;;;51.53;20.73;;;;;;;1.45;66.95;98947.94;4966058;28;20457;-55
2024/01/26 10:17:00;;;;;;;50.75;19.90;;;;;;;1.47;67.30;98951.31;5008469;28;20076;-55
2024/01/26 10:19:27;;;;;;;51.28;20.75;;;;;;;1.41;67.69;98946.28;4973981;28;20049;-54
2024/01/26 10:21:55;;;;;;;52.35;21.27;;;;;;;1.41;67.88;98947.16;4990845;28;20045;-54
2024/01/26 10:24:24;;;;;;;48.08;19.95;;;;;;;1.40;67.42;98947.16;4959701;28;20639;-53
2024/01/26 10:26:51;;;;;;;53.70;20.52;;;;;;;1.43;67.67;98952.22;4996727;28;20034;-55
2024/01/26 10:29:17;;;;;;;48.78;18.88;;;;;;;1.49;67.76;98959.84;5007820;28;20601;-54
2024/01/26 10:31:45;;;;;;;50.05;18.77;;;;;;;1.53;67.56;98947.00;5007742;28;20073;-53
2024/01/26 10:34:16;;;;;;;49.50;20.38;;;;;;;1.56;67.54;98951.25;5004431;28;20053;-56
2024/01/26 10:36:47;;;;;;;48.22;18.83;;;;;;;1.61;67.99;98958.03;4982028;28;20604;-58
2024/01/26 10:39:28;;;;;;;51.97;19.95;;;;;;;1.58;67.55;98946.94;4974572;28;20038;-53
2024/01/26 10:42:03;;;;;;;48.42;19.45;;;;;;;1.60;67.22;98953.78;4991937;28;20159;-54
2024/01/26 10:44:33;;;;;;;49.08;21.58;;;;;;;1.60;67.70;98963.16;5006675;28;20054;-56
2024/01/26 10:47:00;;;;;;;52.90;20.08;;;;;;;1.60;67.32;98966.59;5006114;28;20038;-53
2024/01/26 10:49:27;;;;;;;50.58;19.77;;;;;;;1.46;67.20;98931.72;4974824;28;20703;-54
2024/01/26 10:51:56;;;;;;;57.92;21.55;;;;;;;1.62;67.51;98951.22;4989082;28;20131;-54
2024/01/26 10:54:27;;;;;;;51.90;19.90;;;;;;;1.69;67.26;98957.94;4990858;28;20065;-56
2024/01/26 10:56:53;;;;;;;54.83;21.67;;;;;;;1.76;67.49;98966.41;4991096;28;20541;-57
2024/01/26 10:59:20;;;;;;;49.13;20.10;;;;;;;1.78;67.21;98962.13;5006771;28;20050;-53
2024/01/26 11:01:47;;;;;;;53.88;20.63;;;;;;;1.79;67.21;98964.66;5006960;28;20046;-51
2024/01/26 11:04:13;;;;;;;51.38;20.80;;;;;;;1.79;67.13;98967.22;4991207;28;20517;-55
2024/01/26 11:06:39;;;;;;;51.35;21.13;;;;;;;1.78;67.36;98962.13;4996270;28;20042;-55
2024/01/26 11:09:09;;;;;;;54.42;20.08;;;;;;;1.80;67.22;98962.94;4992187;28;20037;-50
2024/01/26 11:11:36;;;;;;;55.78;21.88;;;;;;;1.56;66.86;98948.69;5006627;28;20041;-50
2024/01/26 11:14:05;;;;;;;58.50;21.08;;;;;;;1.76;67.13;98977.53;4989866;28;20954;-55
2024/01/26 11:16:40;;;;;;;52.22;19.85;;;;;;;1.76;66.80;98981.78;5006881;28;20041;-55
2024/01/26 11:19:07;;;;;;;55.85;21.13;;;;;;;1.78;67.09;98982.63;4987859;28;20865;-53
2024/01/26 11:21:42;;;;;;;57.95;21.02;;;;;;;1.80;66.95;98983.44;4979767;28;20425;-52